createdAt,value
2022-08-16T00:01:18.620Z,20.70
2022-08-16T00:03:48.121Z,20.71
2022-08-16T00:06:17.021Z,20.73
2022-08-16T00:08:45.817Z,20.76
2022-08-16T00:11:16.766Z,20.77
2022-08-16T00:13:53.645Z,20.78
2022-08-16T00:17:05.923Z,20.76
2022-08-16T00:19:15.608Z,20.72
2022-08-16T00:21:45.020Z,20.67
2022-08-16T00:24:30.847Z,20.59
2022-08-16T00:27:00.717Z,20.53
2022-08-16T00:29:29.500Z,20.48
2022-08-16T00:32:05.443Z,20.44
2022-08-16T00:34:44.607Z,20.38
2022-08-16T00:37:24.308Z,20.33
2022-08-16T00:39:58.491Z,20.30
2022-08-16T00:42:31.411Z,20.24
2022-08-16T00:45:08.727Z,20.21
2022-08-16T00:47:49.333Z,20.19
2022-08-16T00:50:21.532Z,20.18
2022-08-16T00:53:04.987Z,20.18
2022-08-16T00:55:37.541Z,20.21
2022-08-16T00:58:12.879Z,20.22
2022-08-16T01:00:45.611Z,20.24
2022-08-16T01:03:30.343Z,20.27
2022-08-16T01:06:40.038Z,20.28
2022-08-16T01:08:52.871Z,20.30
2022-08-16T01:11:23.718Z,20.32
2022-08-16T01:13:54.525Z,20.34
2022-08-16T01:28:30.914Z,20.45
2022-08-16T01:31:01.007Z,20.43
2022-08-16T01:33:33.387Z,20.41
2022-08-16T01:36:11.606Z,20.38
2022-08-16T01:38:49.254Z,20.38
2022-08-16T01:41:26.652Z,20.37
2022-08-16T01:44:00.982Z,20.36
2022-08-16T01:46:39.731Z,20.34
2022-08-16T01:49:11.472Z,20.31
2022-08-16T01:51:43.579Z,20.26
2022-08-16T01:54:13.289Z,20.23
2022-08-16T01:56:43.515Z,20.22
2022-08-16T01:59:15.915Z,20.20
2022-08-16T02:01:49.923Z,20.17
2022-08-16T02:04:48.616Z,20.14
2022-08-16T02:07:11.344Z,20.12
2022-08-16T02:09:40.375Z,20.11
2022-08-16T02:12:43.583Z,20.09
2022-08-16T02:14:59.505Z,20.08
2022-08-16T02:17:30.682Z,20.04
2022-08-16T02:20:00.620Z,20.02
2022-08-16T02:22:34.993Z,19.99
2022-08-16T02:25:10.076Z,19.97
2022-08-16T02:27:38.545Z,19.97
2022-08-16T02:30:12.265Z,19.96
2022-08-16T02:33:03.138Z,19.96
2022-08-16T02:35:31.887Z,19.96
2022-08-16T02:38:01.694Z,19.97
2022-08-16T02:40:37.489Z,19.96
2022-08-16T02:43:05.966Z,19.93
2022-08-16T02:45:34.405Z,19.88
2022-08-16T02:48:29.849Z,19.83
2022-08-16T02:51:05.957Z,19.80
2022-08-16T02:53:37.736Z,19.77
2022-08-16T02:56:09.924Z,19.75
2022-08-16T02:58:38.952Z,19.73
2022-08-16T03:01:08.078Z,19.71
2022-08-16T03:04:39.762Z,19.66
2022-08-16T03:06:41.623Z,19.63
2022-08-16T03:09:13.829Z,19.60
2022-08-16T03:11:45.648Z,19.57
2022-08-16T03:14:14.041Z,19.56
2022-08-16T03:16:59.256Z,19.56
2022-08-16T03:19:42.211Z,19.54
2022-08-16T03:22:18.951Z,19.54
2022-08-16T03:24:57.901Z,19.53
2022-08-16T03:27:31.250Z,19.52
2022-08-16T03:30:01.981Z,19.50
2022-08-16T03:32:30.097Z,19.49
2022-08-16T03:34:59.479Z,19.48
2022-08-16T03:37:27.585Z,19.49
2022-08-16T03:40:02.690Z,19.49
2022-08-16T03:42:31.176Z,19.49
2022-08-16T03:45:03.274Z,19.48
2022-08-16T03:47:34.243Z,19.51
2022-08-16T03:50:25.774Z,19.49
2022-08-16T03:52:59.641Z,19.51
2022-08-16T03:55:45.397Z,19.50
2022-08-16T03:58:13.994Z,19.49
2022-08-16T04:00:42.305Z,19.49
2022-08-16T04:03:10.291Z,19.49
2022-08-16T04:05:44.058Z,19.48
2022-08-16T04:08:23.001Z,19.50
2022-08-16T04:10:53.664Z,19.49
2022-08-16T04:14:01.189Z,19.49
2022-08-16T04:16:26.575Z,19.50
2022-08-16T04:19:02.688Z,19.52
2022-08-16T04:21:35.208Z,19.54
2022-08-16T04:24:07.811Z,19.54
2022-08-16T04:26:36.306Z,19.53
2022-08-16T04:29:18.280Z,19.51
2022-08-16T04:31:55.634Z,19.51
2022-08-16T04:34:26.931Z,19.49
2022-08-16T04:36:57.737Z,19.47
2022-08-16T04:39:36.508Z,19.47
2022-08-16T04:42:12.970Z,19.45
2022-08-16T04:44:54.369Z,19.45
2022-08-16T04:47:33.221Z,19.45
2022-08-16T04:50:04.600Z,19.49
2022-08-16T04:52:35.966Z,19.51
2022-08-16T04:55:16.718Z,19.53
2022-08-16T04:57:45.874Z,19.53
2022-08-16T05:00:32.786Z,19.53
2022-08-16T05:03:07.372Z,19.54
2022-08-16T05:05:45.084Z,19.55
2022-08-16T05:08:28.060Z,19.56
2022-08-16T05:11:00.284Z,19.57
2022-08-16T05:13:40.391Z,19.60
2022-08-16T05:16:20.333Z,19.63
2022-08-16T05:18:51.253Z,19.65
2022-08-16T05:21:20.759Z,19.68
2022-08-16T05:23:58.690Z,19.69
2022-08-16T05:26:31.776Z,19.70
2022-08-16T05:29:04.598Z,19.73
2022-08-16T05:31:33.196Z,19.77
2022-08-16T05:34:04.608Z,19.77
2022-08-16T05:36:33.961Z,19.79
2022-08-16T05:39:08.743Z,19.81
2022-08-16T05:41:45.036Z,19.82
2022-08-16T05:44:22.839Z,19.83
2022-08-16T05:46:54.820Z,19.85
2022-08-16T05:49:23.524Z,19.86
2022-08-16T05:51:51.514Z,19.87
2022-08-16T05:54:25.519Z,19.89
2022-08-16T05:56:54.634Z,19.89
2022-08-16T05:59:24.389Z,19.89
2022-08-16T06:01:55.228Z,19.86
2022-08-16T06:04:36.691Z,19.88
2022-08-16T06:07:08.984Z,19.89
2022-08-16T06:09:44.527Z,19.90
2022-08-16T06:12:26.743Z,19.90
2022-08-16T06:14:59.336Z,19.91
2022-08-16T06:17:42.465Z,19.92
2022-08-16T06:20:14.533Z,19.92
2022-08-16T06:22:47.661Z,19.94
2022-08-16T06:25:36.320Z,19.96
2022-08-16T06:28:09.475Z,19.98
2022-08-16T06:30:44.115Z,20.02
2022-08-16T06:33:22.326Z,20.09
2022-08-16T06:35:55.033Z,20.14
2022-08-16T06:38:32.531Z,20.18
2022-08-16T06:41:05.507Z,20.17
2022-08-16T06:43:35.092Z,20.19
2022-08-16T06:46:05.437Z,20.24
2022-08-16T06:48:34.071Z,20.28
2022-08-16T06:51:03.652Z,20.34
2022-08-16T06:53:33.546Z,20.42
2022-08-16T06:56:14.270Z,20.50
2022-08-16T06:58:47.768Z,20.59
2022-08-16T07:01:20.217Z,20.64
2022-08-16T07:03:54.922Z,20.68
2022-08-16T07:06:26.506Z,20.72
2022-08-16T07:08:55.999Z,20.76
2022-08-16T07:11:47.791Z,20.77
2022-08-16T07:14:24.703Z,20.81
2022-08-16T07:16:58.375Z,20.84
2022-08-16T07:20:01.495Z,20.87
2022-08-16T07:22:39.177Z,20.91
2022-08-16T07:25:07.731Z,20.91
2022-08-16T07:27:37.678Z,20.87
2022-08-16T07:30:38.393Z,20.82
2022-08-16T07:32:56.832Z,20.80
2022-08-16T07:35:25.771Z,20.77
2022-08-16T07:37:54.329Z,20.74
2022-08-16T07:40:49.208Z,20.73
2022-08-16T07:43:12.356Z,20.76
2022-08-16T07:45:42.918Z,20.81
2022-08-16T07:48:12.415Z,20.85
2022-08-16T07:50:57.103Z,20.88
2022-08-16T07:53:28.965Z,20.90
2022-08-16T07:55:57.556Z,20.94
2022-08-16T07:58:35.253Z,20.96
2022-08-16T08:01:10.525Z,20.97
2022-08-16T08:03:48.259Z,20.96
2022-08-16T08:06:16.876Z,20.94
2022-08-16T08:08:50.385Z,20.95
2022-08-16T08:11:24.052Z,20.97
2022-08-16T08:14:03.911Z,21.00
2022-08-16T08:16:35.666Z,21.03
2022-08-16T08:19:04.834Z,21.09
2022-08-16T08:21:58.395Z,21.13
2022-08-16T08:24:31.618Z,21.18
2022-08-16T08:27:02.100Z,21.20
2022-08-16T08:29:36.769Z,21.20
2022-08-16T08:32:51.167Z,21.23
2022-08-16T08:34:56.032Z,21.25
2022-08-16T08:37:33.428Z,21.28
2022-08-16T08:40:19.478Z,21.31
2022-08-16T08:42:57.876Z,21.33
2022-08-16T08:45:53.226Z,21.39
2022-08-16T08:48:34.454Z,21.47
2022-08-16T08:51:08.681Z,21.57
2022-08-16T08:53:37.844Z,21.67
2022-08-16T08:56:23.074Z,21.73
2022-08-16T08:58:59.987Z,21.80
2022-08-16T09:01:36.557Z,21.83
2022-08-16T09:04:14.362Z,21.89
2022-08-16T09:06:45.502Z,21.96
2022-08-16T09:09:16.803Z,22.02
2022-08-16T09:11:49.584Z,22.09
2022-08-16T09:14:24.080Z,22.13
2022-08-16T09:17:01.716Z,22.17
2022-08-16T09:19:37.141Z,22.20
2022-08-16T09:22:20.678Z,22.25
2022-08-16T09:24:52.344Z,22.34
2022-08-16T09:27:23.465Z,22.38
2022-08-16T09:29:59.913Z,22.42
2022-08-16T09:32:31.056Z,22.44
2022-08-16T09:35:00.171Z,22.47
2022-08-16T09:37:29.647Z,22.50
2022-08-16T09:39:59.479Z,22.54
2022-08-16T09:42:28.176Z,22.56
2022-08-16T09:45:09.560Z,22.58
2022-08-16T09:47:57.224Z,22.61
2022-08-16T09:50:38.207Z,22.65
2022-08-16T09:53:15.108Z,22.72
2022-08-16T09:55:49.622Z,22.78
2022-08-16T09:58:40.702Z,22.83
2022-08-16T10:01:12.948Z,22.89
2022-08-16T10:04:02.752Z,22.97
2022-08-16T10:06:33.697Z,23.00
2022-08-16T10:09:05.644Z,23.07
2022-08-16T10:11:52.611Z,23.11
2022-08-16T10:14:24.337Z,23.13
2022-08-16T10:17:00.014Z,23.14
2022-08-16T10:19:32.363Z,23.19
2022-08-16T10:22:05.298Z,23.23
2022-08-16T10:24:33.790Z,23.24
2022-08-16T10:27:25.177Z,23.25
2022-08-16T10:32:35.314Z,23.24
2022-08-16T10:35:05.669Z,23.21
2022-08-16T10:37:36.471Z,23.20
2022-08-16T10:40:29.652Z,23.18
2022-08-16T10:42:56.134Z,23.15
2022-08-16T10:45:25.073Z,23.02
2022-08-16T10:48:02.640Z,22.88
2022-08-16T10:50:33.719Z,22.84
2022-08-16T10:53:07.531Z,22.83
2022-08-16T10:55:40.979Z,22.82
2022-08-16T10:58:17.078Z,22.83
2022-08-16T11:00:46.511Z,22.86
2022-08-16T11:06:07.557Z,22.70
2022-08-16T11:08:45.292Z,22.52
2022-08-16T11:11:19.646Z,22.38
2022-08-16T11:14:11.367Z,22.30
2022-08-16T11:19:25.833Z,22.04
2022-08-16T11:22:39.381Z,21.82
2022-08-16T11:24:46.541Z,21.68
2022-08-16T11:27:35.908Z,21.53
2022-08-16T11:30:09.180Z,21.41
2022-08-16T11:32:40.991Z,21.36
2022-08-16T11:35:13.662Z,21.34
2022-08-16T11:40:38.797Z,21.31
2022-08-16T11:43:09.955Z,21.30
2022-08-16T11:45:38.516Z,21.28
2022-08-16T11:48:07.326Z,21.28
2022-08-16T11:50:36.101Z,21.29
2022-08-16T11:53:08.291Z,21.31
2022-08-16T11:55:38.473Z,21.34
2022-08-16T11:58:08.588Z,21.36
2022-08-16T12:00:50.374Z,21.28
2022-08-16T12:03:20.450Z,21.14
2022-08-16T12:06:02.385Z,21.01
2022-08-16T12:08:32.781Z,20.90
2022-08-16T12:11:02.289Z,20.77
2022-08-16T12:13:30.872Z,20.62
2022-08-16T12:15:58.994Z,20.37
2022-08-16T12:18:26.988Z,20.11
2022-08-16T12:20:55.394Z,19.75
2022-08-16T12:23:26.435Z,19.33
2022-08-16T12:25:57.892Z,19.20
2022-08-16T12:28:54.249Z,19.09
2022-08-16T12:31:15.712Z,18.95
2022-08-16T12:33:45.133Z,18.88
2022-08-16T12:36:14.402Z,18.88
2022-08-16T12:38:48.318Z,18.87
2022-08-16T12:41:24.302Z,18.80
2022-08-16T12:43:57.209Z,18.70
2022-08-16T12:46:30.988Z,18.66
2022-08-16T12:48:58.980Z,18.72
2022-08-16T12:51:57.654Z,18.78
2022-08-16T12:54:20.280Z,18.83
2022-08-16T12:56:50.318Z,18.86
2022-08-16T12:59:20.356Z,18.94
2022-08-16T13:01:50.298Z,19.02
2022-08-16T13:04:20.979Z,19.12
2022-08-16T13:06:53.005Z,19.19
2022-08-16T13:09:26.533Z,19.25
2022-08-16T13:12:03.408Z,19.30
2022-08-16T13:14:34.291Z,19.31
2022-08-16T13:17:06.885Z,19.32
2022-08-16T13:20:05.597Z,19.36
2022-08-16T13:22:25.476Z,19.42
2022-08-16T13:24:54.324Z,19.50
2022-08-16T13:28:01.427Z,19.59
2022-08-16T13:30:35.628Z,19.67
2022-08-16T13:33:01.432Z,19.74
2022-08-16T13:35:42.914Z,19.75
2022-08-16T13:38:21.615Z,19.81
2022-08-16T13:40:55.982Z,19.87
2022-08-16T13:43:27.076Z,19.91
2022-08-16T13:45:56.203Z,19.92
2022-08-16T13:48:25.139Z,19.99
2022-08-16T13:50:54.073Z,20.04
2022-08-16T13:53:24.532Z,20.08
2022-08-16T13:55:58.748Z,20.13
2022-08-16T13:58:37.432Z,20.18
2022-08-16T14:01:18.713Z,20.25
2022-08-16T14:03:47.946Z,20.33
2022-08-16T14:06:18.873Z,20.41
2022-08-16T14:08:58.946Z,20.34
2022-08-16T14:11:34.078Z,20.36
2022-08-16T14:14:05.485Z,20.37
2022-08-16T14:16:34.835Z,20.41
2022-08-16T14:19:03.289Z,20.37
2022-08-16T14:21:35.359Z,20.36
2022-08-16T14:24:12.841Z,20.14
2022-08-16T14:26:53.508Z,20.01
2022-08-16T14:29:23.010Z,20.09
2022-08-16T14:31:53.527Z,20.22
2022-08-16T14:34:25.753Z,20.43
2022-08-16T14:36:57.617Z,20.57
2022-08-16T14:39:28.220Z,20.54
2022-08-16T14:41:56.964Z,20.38
2022-08-16T14:44:27.042Z,20.09
2022-08-16T14:46:56.314Z,19.87
2022-08-16T14:49:25.067Z,19.69
2022-08-16T14:51:53.282Z,19.60
2022-08-16T14:54:22.046Z,19.56
2022-08-16T14:56:56.917Z,19.51
2022-08-16T14:59:27.364Z,19.48
2022-08-16T15:02:00.682Z,19.46
2022-08-16T15:04:39.506Z,19.44
2022-08-16T15:07:12.543Z,19.37
2022-08-16T15:09:44.178Z,19.33
2022-08-16T15:12:31.290Z,19.32
2022-08-16T15:15:12.465Z,19.32
2022-08-16T15:17:56.024Z,19.25
2022-08-16T15:20:26.866Z,19.16
2022-08-16T15:22:57.469Z,19.12
2022-08-16T15:25:29.625Z,19.10
2022-08-16T15:27:58.288Z,19.06
2022-08-16T15:30:58.308Z,19.03
2022-08-16T15:33:19.598Z,18.99
2022-08-16T15:35:50.265Z,19.00
2022-08-16T15:38:55.292Z,19.02
2022-08-16T15:41:07.375Z,19.07
2022-08-16T15:43:40.001Z,19.10
2022-08-16T15:46:35.663Z,19.13
2022-08-16T15:49:14.753Z,19.21
2022-08-16T15:51:45.428Z,19.30
2022-08-16T15:54:21.642Z,19.35
2022-08-16T15:57:09.650Z,19.40
2022-08-16T15:59:49.293Z,19.45
2022-08-16T16:02:29.252Z,19.49
2022-08-16T16:05:01.805Z,19.49
2022-08-16T16:07:32.067Z,19.48
2022-08-16T16:10:03.023Z,19.50
2022-08-16T16:12:51.307Z,19.53
2022-08-16T16:15:22.639Z,19.44
2022-08-16T16:17:53.164Z,19.46
2022-08-16T16:20:24.446Z,19.53
2022-08-16T16:22:57.809Z,19.55
2022-08-16T16:25:26.574Z,19.58
2022-08-16T16:27:55.447Z,19.57
2022-08-16T16:30:43.047Z,19.57
2022-08-16T16:33:21.118Z,19.61
2022-08-16T16:35:55.417Z,19.61
2022-08-16T16:38:30.845Z,19.62
2022-08-16T16:40:59.946Z,19.71
2022-08-16T16:43:30.327Z,19.76
2022-08-16T16:46:00.604Z,19.85
2022-08-16T16:48:34.749Z,19.91
2022-08-16T16:51:09.358Z,19.95
2022-08-16T16:53:55.932Z,19.94
2022-08-16T16:56:31.155Z,19.91
2022-08-16T16:59:01.779Z,19.88
2022-08-16T17:01:41.348Z,19.83
2022-08-16T17:04:31.609Z,19.83
2022-08-16T17:07:01.448Z,19.80
2022-08-16T17:09:29.793Z,19.72
2022-08-16T17:11:58.225Z,19.65
2022-08-16T17:14:33.292Z,19.57
2022-08-16T17:17:06.700Z,19.54
2022-08-16T17:19:41.242Z,19.53
2022-08-16T17:22:14.405Z,19.50
2022-08-16T17:24:45.141Z,19.46
2022-08-16T17:27:18.076Z,19.42
2022-08-16T17:29:47.553Z,19.39
2022-08-16T17:32:34.148Z,19.36
2022-08-16T17:35:18.227Z,19.28
2022-08-16T17:38:04.832Z,19.26
2022-08-16T17:40:47.050Z,19.23
2022-08-16T17:43:27.403Z,19.21
2022-08-16T17:45:55.913Z,19.19
2022-08-16T17:48:24.033Z,19.18
2022-08-16T17:50:54.558Z,19.18
2022-08-16T17:53:23.238Z,19.14
2022-08-16T17:55:51.674Z,19.10
2022-08-16T17:58:23.243Z,19.08
2022-08-16T18:00:53.568Z,19.07
2022-08-16T18:04:02.400Z,19.06
2022-08-16T18:06:16.777Z,19.06
2022-08-16T18:08:48.587Z,19.05
2022-08-16T18:11:26.204Z,19.06
2022-08-16T18:13:55.682Z,19.06
2022-08-16T18:16:24.199Z,19.03
2022-08-16T18:18:52.316Z,19.00
2022-08-16T18:21:40.095Z,18.98
2022-08-16T18:24:08.918Z,18.96
2022-08-16T18:26:37.354Z,18.94
2022-08-16T18:29:05.902Z,18.90
2022-08-16T18:31:34.082Z,18.86
2022-08-16T18:34:02.683Z,18.82
2022-08-16T18:36:33.381Z,18.78
2022-08-16T18:39:01.505Z,18.74
2022-08-16T18:41:30.434Z,18.69
2022-08-16T18:44:25.324Z,18.68
2022-08-16T18:46:50.723Z,18.66
2022-08-16T18:49:19.511Z,18.60
2022-08-16T18:51:50.744Z,18.57
2022-08-16T18:54:19.499Z,18.55
2022-08-16T18:56:55.702Z,18.54
2022-08-16T18:59:27.040Z,18.51
2022-08-16T19:01:55.502Z,18.50
2022-08-16T19:04:56.081Z,18.48
2022-08-16T19:07:22.860Z,18.45
2022-08-16T19:09:58.419Z,18.41
2022-08-16T19:12:38.296Z,18.39
2022-08-16T19:15:13.316Z,18.36
2022-08-16T19:17:43.176Z,18.34
2022-08-16T19:20:12.506Z,18.32
2022-08-16T19:25:47.653Z,18.28
2022-08-16T19:28:33.377Z,18.25
2022-08-16T19:31:10.923Z,18.24
2022-08-16T19:33:39.102Z,18.22
2022-08-16T19:36:07.510Z,18.22
2022-08-16T19:38:41.077Z,18.21
2022-08-16T19:41:09.890Z,18.21
2022-08-16T19:43:37.923Z,18.20
2022-08-16T19:46:06.392Z,18.20
2022-08-16T19:48:34.629Z,18.21
2022-08-16T19:51:02.653Z,18.20
2022-08-16T19:53:30.928Z,18.18
2022-08-16T19:56:00.333Z,18.18
2022-08-16T19:58:28.375Z,18.16
2022-08-16T20:00:56.563Z,18.15
2022-08-16T20:03:26.226Z,18.15
2022-08-16T20:05:55.168Z,18.13
2022-08-16T20:08:23.378Z,18.15
2022-08-16T20:10:51.642Z,18.15
2022-08-16T20:13:23.242Z,18.17
2022-08-16T20:15:51.694Z,18.17
2022-08-16T20:18:25.785Z,18.17
2022-08-16T20:20:55.835Z,18.17
2022-08-16T20:23:25.108Z,18.19
2022-08-16T20:25:55.729Z,18.18
2022-08-16T20:28:40.784Z,18.19
2022-08-16T20:31:14.424Z,18.21
2022-08-16T20:33:42.456Z,18.21
2022-08-16T20:36:10.671Z,18.22
2022-08-16T20:38:46.977Z,18.22
2022-08-16T20:41:15.622Z,18.22
2022-08-16T20:43:45.547Z,18.22
2022-08-16T20:46:14.898Z,18.23
2022-08-16T20:48:43.260Z,18.24
2022-08-16T20:51:11.902Z,18.25
2022-08-16T20:53:40.794Z,18.26
2022-08-16T20:56:10.087Z,18.26
2022-08-16T20:58:38.561Z,18.26
2022-08-16T21:01:08.529Z,18.26
2022-08-16T21:03:37.078Z,18.27
2022-08-16T21:06:05.906Z,18.29
2022-08-16T21:08:51.811Z,18.30
2022-08-16T21:11:22.014Z,18.32
2022-08-16T21:13:50.006Z,18.33
2022-08-16T21:16:19.720Z,18.33
2022-08-16T21:18:47.839Z,18.34
2022-08-16T21:21:16.109Z,18.35
2022-08-16T21:23:44.101Z,18.36
2022-08-16T21:26:12.260Z,18.37
2022-08-16T21:28:43.315Z,18.38
2022-08-16T21:31:12.486Z,18.38
2022-08-16T21:33:42.605Z,18.38
2022-08-16T21:36:10.819Z,18.40
2022-08-16T21:38:39.120Z,18.38
2022-08-16T21:41:10.134Z,18.38
2022-08-16T21:43:38.191Z,18.39
2022-08-16T21:46:08.187Z,18.39
2022-08-16T21:48:40.705Z,18.40
2022-08-16T21:51:15.925Z,18.40
2022-08-16T21:53:44.741Z,18.40
2022-08-16T21:56:18.475Z,18.39
2022-08-16T21:58:52.490Z,18.39
2022-08-16T22:01:22.259Z,18.38
2022-08-16T22:04:09.549Z,18.37
2022-08-16T22:06:40.374Z,18.37
2022-08-16T22:09:09.936Z,18.37
2022-08-16T22:11:39.184Z,18.38
2022-08-16T22:14:09.330Z,18.38
2022-08-16T22:16:39.713Z,18.39
2022-08-16T22:19:16.530Z,18.40
2022-08-16T22:21:45.910Z,18.39
2022-08-16T22:24:13.878Z,18.39
2022-08-16T22:26:43.586Z,18.39
2022-08-16T22:29:14.400Z,18.39
2022-08-16T22:31:43.899Z,18.38
2022-08-16T22:34:12.157Z,18.37
2022-08-16T22:36:40.225Z,18.37
2022-08-16T22:39:11.727Z,18.36
2022-08-16T22:41:42.139Z,18.36
2022-08-16T22:44:10.529Z,18.36
2022-08-16T22:46:38.603Z,18.35
2022-08-16T22:49:07.931Z,18.35
2022-08-16T22:51:37.786Z,18.36
2022-08-16T22:54:47.282Z,18.35
2022-08-16T22:57:01.019Z,18.34
2022-08-16T22:59:30.449Z,18.33
2022-08-16T23:01:59.025Z,18.34
2022-08-16T23:04:27.021Z,18.33
2022-08-16T23:06:55.017Z,18.34
2022-08-16T23:09:24.409Z,18.32
2022-08-16T23:11:52.580Z,18.32
2022-08-16T23:14:20.823Z,18.32
2022-08-16T23:16:48.815Z,18.31
2022-08-16T23:19:18.199Z,18.31
2022-08-16T23:21:48.979Z,18.31
2022-08-16T23:24:19.411Z,18.31
2022-08-16T23:26:49.737Z,18.31
2022-08-16T23:29:23.900Z,18.30
2022-08-16T23:31:54.007Z,18.29
2022-08-16T23:34:22.146Z,18.30
2022-08-16T23:36:50.245Z,18.29
2022-08-16T23:39:18.255Z,18.28
2022-08-16T23:41:46.315Z,18.29
2022-08-16T23:44:56.559Z,18.31
2022-08-16T23:47:06.040Z,18.30
2022-08-16T23:49:58.987Z,18.32
2022-08-16T23:52:42.293Z,18.32
2022-08-16T23:55:10.951Z,18.31
2022-08-16T23:57:38.973Z,18.30
